Time,TemperatureF,DewpointF,PressureIn,WindDirection,WindDirectionDegrees,WindSpeedMPH,WindSpeedGustMPH,Humidity,HourlyPrecipIn,Conditions,Clouds,dailyrainin,SoftwareType,DateUTC
2013-10-09 00:02:00,25.0,22.0,-100.00,SE,135,3.0,4.0,87,0.00,,,-99.99,,2013-10-09 06:02:00,
2013-10-09 00:12:00,25.0,22.0,-100.00,SE,135,3.0,4.0,87,0.00,,,-99.99,,2013-10-09 06:12:00,
2013-10-09 00:52:00,24.0,21.0,-100.00,SSE,164,2.0,2.0,90,0.00,,,-99.99,,2013-10-09 06:52:00,
2013-10-09 01:01:00,24.0,21.0,-100.00,SSE,164,2.0,2.0,90,0.00,,,-99.99,,2013-10-09 07:01:00,
2013-10-09 01:12:00,24.0,21.0,-100.00,SSE,164,2.0,2.0,90,0.00,,,-99.99,,2013-10-09 07:12:00,
2013-10-09 01:52:00,23.0,21.0,-100.00,SE,137,2.0,3.0,91,-99.99,,,-99.99,,2013-10-09 07:52:00,
2013-10-09 02:02:00,23.0,21.0,-100.00,SE,137,2.0,3.0,91,-99.99,,,-99.99,,2013-10-09 08:02:00,
2013-10-09 02:12:00,23.0,21.0,-100.00,SE,137,2.0,3.0,91,-99.99,,,-99.99,,2013-10-09 08:12:00,
2013-10-09 03:53:00,21.0,19.0,-100.00,ESE,113,0.0,1.0,92,0.00,,,-99.99,,2013-10-09 09:53:00,
2013-10-09 04:03:00,21.0,19.0,-100.00,ESE,113,0.0,1.0,92,0.00,,,-99.99,,2013-10-09 10:03:00,
2013-10-09 04:12:00,21.0,19.0,-100.00,ESE,113,0.0,1.0,92,0.00,,,-99.99,,2013-10-09 10:12:00,
2013-10-09 05:52:00,19.0,17.0,-100.00,SE,139,2.0,2.0,91,0.00,,,-99.99,,2013-10-09 11:52:00,
2013-10-09 06:01:00,19.0,17.0,-100.00,SE,139,2.0,2.0,91,0.00,,,-99.99,,2013-10-09 12:01:00,
2013-10-09 06:12:00,19.0,17.0,-100.00,SE,139,2.0,2.0,91,0.00,,,-99.99,,2013-10-09 12:12:00,
2013-10-09 06:52:00,19.0,16.0,-100.00,SSE,161,0.0,0.0,90,0.00,,,-99.99,,2013-10-09 12:52:00,
2013-10-09 07:02:00,19.0,16.0,-100.00,SSE,161,0.0,0.0,90,0.00,,,-99.99,,2013-10-09 13:02:00,
2013-10-09 07:11:00,19.0,16.0,-100.00,SSE,161,0.0,0.0,90,0.00,,,-99.99,,2013-10-09 13:11:00,
2013-10-09 07:52:00,18.0,16.0,-100.00,SE,124,1.0,1.0,91,-99.99,,,-99.99,,2013-10-09 13:52:00,
2013-10-09 08:02:00,18.0,16.0,-100.00,SE,124,1.0,1.0,91,-99.99,,,-99.99,,2013-10-09 14:02:00,
2013-10-09 08:11:00,18.0,16.0,-100.00,SE,124,1.0,1.0,91,-99.99,,,-99.99,,2013-10-09 14:11:00,
2013-10-09 08:52:00,21.0,18.0,-100.00,East,98,1.0,1.0,86,0.00,,,-99.99,,2013-10-09 14:52:00,
2013-10-09 09:02:00,21.0,18.0,-100.00,East,98,1.0,1.0,86,0.00,,,-99.99,,2013-10-09 15:02:00,
2013-10-09 09:11:00,21.0,18.0,-100.00,East,98,1.0,1.0,86,0.00,,,-99.99,,2013-10-09 15:11:00,
2013-10-09 09:53:00,27.0,22.0,-100.00,West,265,1.0,2.0,82,-99.99,,,-99.99,,2013-10-09 15:53:00,
2013-10-09 10:03:00,27.0,22.0,-100.00,West,265,1.0,2.0,82,-99.99,,,-99.99,,2013-10-09 16:03:00,
2013-10-09 10:13:00,27.0,22.0,-100.00,West,265,1.0,2.0,82,-99.99,,,-99.99,,2013-10-09 16:13:00,
2013-10-09 10:53:00,31.0,23.0,-100.00,West,276,0.0,1.0,72,0.01,,,-99.99,,2013-10-09 16:53:00,
2013-10-09 11:03:00,31.0,23.0,-100.00,West,276,0.0,1.0,72,0.01,,,-99.99,,2013-10-09 17:03:00,
2013-10-09 11:12:00,31.0,23.0,-100.00,West,276,0.0,1.0,72,0.01,,,-99.99,,2013-10-09 17:12:00,
2013-10-09 11:52:00,35.0,27.0,-100.00,WNW,292,1.0,2.0,73,0.00,,,-99.99,,2013-10-09 17:52:00,
2013-10-09 12:01:00,35.0,27.0,-100.00,WNW,292,1.0,2.0,73,0.00,,,-99.99,,2013-10-09 18:01:00,
2013-10-09 12:12:00,35.0,27.0,-100.00,WNW,292,1.0,2.0,73,0.00,,,-99.99,,2013-10-09 18:12:00,
2013-10-09 13:53:00,46.0,29.0,-100.00,NNW,342,3.0,4.0,51,0.00,,,-99.99,,2013-10-09 19:53:00,
2013-10-09 14:02:00,46.0,29.0,-100.00,NNW,342,3.0,4.0,51,0.00,,,-99.99,,2013-10-09 20:02:00,
2013-10-09 14:11:00,46.0,29.0,-100.00,NNW,342,3.0,4.0,51,0.00,,,-99.99,,2013-10-09 20:11:00,
2013-10-09 14:52:00,48.0,30.0,-100.00,SSW,202,1.0,3.0,49,0.00,,,-99.99,,2013-10-09 20:52:00,
2013-10-09 15:02:00,48.0,30.0,-100.00,SSW,202,1.0,3.0,49,0.00,,,-99.99,,2013-10-09 21:02:00,
2013-10-09 15:11:00,48.0,30.0,-100.00,SSW,202,1.0,3.0,49,0.00,,,-99.99,,2013-10-09 21:11:00,
2013-10-09 15:54:00,49.0,29.0,-100.00,SE,133,7.0,12.0,46,0.01,,,0.00,,2013-10-09 21:54:00,
2013-10-09 16:03:00,49.0,29.0,-100.00,SE,133,7.0,12.0,46,0.01,,,0.00,,2013-10-09 22:03:00,
2013-10-09 16:13:00,49.0,29.0,-100.00,SE,133,7.0,12.0,46,0.01,,,0.00,,2013-10-09 22:13:00,
2013-10-09 16:53:00,50.0,30.0,-100.00,SSE,160,8.0,13.0,47,0.00,,,-99.99,,2013-10-09 22:53:00,
2013-10-09 17:03:00,50.0,30.0,-100.00,SSE,160,8.0,13.0,47,0.00,,,-99.99,,2013-10-09 23:03:00,
2013-10-09 17:11:00,50.0,30.0,-100.00,SSE,160,8.0,13.0,47,0.00,,,-99.99,,2013-10-09 23:11:00,
2013-10-09 17:53:00,49.0,29.0,-100.00,SE,126,9.0,14.0,46,0.00,,,-99.99,,2013-10-09 23:53:00,
2013-10-09 18:02:00,49.0,29.0,-100.00,SE,126,9.0,14.0,46,0.00,,,-99.99,,2013-10-10 00:02:00,
2013-10-09 18:12:00,49.0,29.0,-100.00,SE,126,9.0,14.0,46,0.00,,,-99.99,,2013-10-10 00:12:00,
2013-10-09 18:52:00,43.0,33.0,-100.00,SSE,162,2.0,3.0,68,0.01,,,-99.99,,2013-10-10 00:52:00,
2013-10-09 19:01:00,43.0,33.0,-100.00,SSE,162,2.0,3.0,68,0.01,,,-99.99,,2013-10-10 01:01:00,
2013-10-09 19:11:00,43.0,33.0,-100.00,SSE,162,2.0,3.0,68,0.01,,,-99.99,,2013-10-10 01:11:00,
2013-10-09 19:52:00,42.0,33.0,-100.00,WSW,247,1.0,4.0,71,0.00,,,0.00,,2013-10-10 01:52:00,
2013-10-09 20:02:00,42.0,33.0,-100.00,WSW,247,1.0,4.0,71,0.00,,,0.00,,2013-10-10 02:02:00,
2013-10-09 20:12:00,42.0,33.0,-100.00,WSW,247,1.0,4.0,71,0.00,,,0.00,,2013-10-10 02:12:00,
2013-10-09 21:12:00,36.0,31.0,-100.00,SE,137,0.0,1.0,83,0.00,,,0.00,,2013-10-10 03:12:00,
2013-10-09 21:55:00,32.0,29.0,-100.00,SE,145,2.0,3.0,89,0.00,,,0.01,,2013-10-10 03:55:00,
2013-10-09 22:04:00,32.0,29.0,-100.00,SE,145,2.0,3.0,89,0.00,,,0.01,,2013-10-10 04:04:00,
2013-10-09 22:13:00,32.0,29.0,-100.00,SE,145,2.0,3.0,89,0.00,,,0.01,,2013-10-10 04:13:00,
2013-10-09 22:54:00,29.0,27.0,-100.00,ESE,121,2.0,3.0,93,0.00,,,0.00,,2013-10-10 04:54:00,
2013-10-09 23:03:00,29.0,27.0,-100.00,ESE,121,2.0,3.0,93,0.00,,,0.00,,2013-10-10 05:03:00,
2013-10-09 23:12:00,29.0,27.0,-100.00,ESE,121,2.0,3.0,93,0.00,,,0.00,,2013-10-10 05:12:00,
2013-10-09 23:52:00,28.0,27.0,-100.00,SSE,148,2.0,2.0,93,0.00,,,0.00,,2013-10-10 05:52:00,